sensor_id;sensor_type;location;lat;lon;timestamp;P1;durP1;ratioP1;P2;durP2;ratioP2
28509;SDS011;15723;55.684;37.928;2023-03-19T04:15:42;16.10;;;9.77;;
28509;SDS011;15723;55.684;37.928;2023-03-19T04:18:10;17.60;;;10.90;;
28509;SDS011;15723;55.684;37.928;2023-03-19T04:20:37;13.98;;;9.00;;
28509;SDS011;15723;55.684;37.928;2023-03-19T04:32:49;15.95;;;9.40;;
28509;SDS011;15723;55.684;37.928;2023-03-19T04:35:15;16.08;;;9.65;;
28509;SDS011;15723;55.684;37.928;2023-03-19T04:37:42;13.68;;;8.68;;
28509;SDS011;15723;55.684;37.928;2023-03-19T04:40:14;16.65;;;9.50;;
28509;SDS011;15723;55.684;37.928;2023-03-19T04:42:41;13.48;;;8.20;;
28509;SDS011;15723;55.684;37.928;2023-03-19T04:45:13;10.18;;;7.10;;
28509;SDS011;15723;55.684;37.928;2023-03-19T04:47:41;8.57;;;6.60;;
28509;SDS011;15723;55.684;37.928;2023-03-19T04:50:07;11.52;;;6.93;;
28509;SDS011;15723;55.684;37.928;2023-03-19T04:52:34;9.00;;;6.35;;
28509;SDS011;15723;55.684;37.928;2023-03-19T04:55:03;8.77;;;5.93;;
28509;SDS011;15723;55.684;37.928;2023-03-19T04:57:39;9.45;;;5.47;;
28509;SDS011;15723;55.684;37.928;2023-03-19T05:00:06;9.30;;;5.35;;
28509;SDS011;15723;55.684;37.928;2023-03-19T05:02:36;7.35;;;6.00;;
28509;SDS011;15723;55.684;37.928;2023-03-19T05:05:03;7.82;;;5.57;;
28509;SDS011;15723;55.684;37.928;2023-03-19T05:07:29;9.05;;;6.63;;
28509;SDS011;15723;55.684;37.928;2023-03-19T05:09:59;10.02;;;6.55;;
28509;SDS011;15723;55.684;37.928;2023-03-19T05:12:25;8.73;;;5.93;;
28509;SDS011;15723;55.684;37.928;2023-03-19T05:14:54;7.80;;;6.07;;
28509;SDS011;15723;55.684;37.928;2023-03-19T05:17:28;7.60;;;5.67;;
28509;SDS011;15723;55.684;37.928;2023-03-19T05:20:14;7.72;;;5.30;;
28509;SDS011;15723;55.684;37.928;2023-03-19T05:22:47;8.40;;;6.10;;
28509;SDS011;15723;55.684;37.928;2023-03-19T05:25:16;12.80;;;5.97;;
28509;SDS011;15723;55.684;37.928;2023-03-19T05:27:43;7.32;;;5.70;;
28509;SDS011;15723;55.684;37.928;2023-03-19T06:07:54;6.10;;;5.10;;
28509;SDS011;15723;55.684;37.928;2023-03-19T06:35:57;6.37;;;4.53;;
28509;SDS011;15723;55.684;37.928;2023-03-19T06:38:24;7.70;;;4.93;;
28509;SDS011;15723;55.684;37.928;2023-03-19T06:40:50;6.93;;;5.28;;
28509;SDS011;15723;55.684;37.928;2023-03-19T06:43:16;6.47;;;4.47;;
28509;SDS011;15723;55.684;37.928;2023-03-19T06:45:43;6.07;;;5.07;;
28509;SDS011;15723;55.684;37.928;2023-03-19T06:48:09;7.57;;;5.57;;
28509;SDS011;15723;55.684;37.928;2023-03-19T06:50:35;7.00;;;5.47;;
28509;SDS011;15723;55.684;37.928;2023-03-19T06:53:01;7.32;;;5.80;;
28509;SDS011;15723;55.684;37.928;2023-03-19T06:55:29;5.90;;;5.05;;
28509;SDS011;15723;55.684;37.928;2023-03-19T06:57:55;8.82;;;5.80;;
28509;SDS011;15723;55.684;37.928;2023-03-19T07:00:21;8.70;;;5.38;;
28509;SDS011;15723;55.684;37.928;2023-03-19T07:02:48;7.75;;;5.35;;
28509;SDS011;15723;55.684;37.928;2023-03-19T07:05:14;7.60;;;5.57;;
28509;SDS011;15723;55.684;37.928;2023-03-19T07:07:40;6.80;;;5.47;;
28509;SDS011;15723;55.684;37.928;2023-03-19T07:10:07;7.75;;;5.90;;
28509;SDS011;15723;55.684;37.928;2023-03-19T07:12:43;7.53;;;5.85;;
28509;SDS011;15723;55.684;37.928;2023-03-19T07:15:09;7.93;;;5.13;;
28509;SDS011;15723;55.684;37.928;2023-03-19T07:17:36;7.35;;;5.47;;
28509;SDS011;15723;55.684;37.928;2023-03-19T07:20:02;5.35;;;4.80;;
28509;SDS011;15723;55.684;37.928;2023-03-19T07:22:29;7.45;;;5.22;;
28509;SDS011;15723;55.684;37.928;2023-03-19T07:24:55;5.53;;;4.85;;
28509;SDS011;15723;55.684;37.928;2023-03-19T07:27:22;5.93;;;5.35;;
28509;SDS011;15723;55.684;37.928;2023-03-19T07:29:48;6.72;;;5.90;;
28509;SDS011;15723;55.684;37.928;2023-03-19T07:32:14;6.43;;;5.78;;
28509;SDS011;15723;55.684;37.928;2023-03-19T07:34:40;6.15;;;5.00;;
28509;SDS011;15723;55.684;37.928;2023-03-19T07:37:06;5.10;;;4.60;;
28509;SDS011;15723;55.684;37.928;2023-03-19T07:39:33;6.97;;;4.95;;
28509;SDS011;15723;55.684;37.928;2023-03-19T07:41:59;7.32;;;5.43;;
28509;SDS011;15723;55.684;37.928;2023-03-19T07:44:28;5.68;;;5.05;;
28509;SDS011;15723;55.684;37.928;2023-03-19T07:46:54;5.60;;;4.90;;
28509;SDS011;15723;55.684;37.928;2023-03-19T07:49:21;6.63;;;5.45;;
28509;SDS011;15723;55.684;37.928;2023-03-19T07:51:47;6.32;;;5.50;;
28509;SDS011;15723;55.684;37.928;2023-03-19T07:54:14;5.15;;;4.65;;
28509;SDS011;15723;55.684;37.928;2023-03-19T07:56:40;5.30;;;4.25;;
28509;SDS011;15723;55.684;37.928;2023-03-19T07:59:06;7.13;;;4.97;;
28509;SDS011;15723;55.684;37.928;2023-03-19T08:01:32;6.35;;;5.72;;
28509;SDS011;15723;55.684;37.928;2023-03-19T08:03:59;8.05;;;5.07;;
28509;SDS011;15723;55.684;37.928;2023-03-19T08:06:25;5.03;;;4.60;;
28509;SDS011;15723;55.684;37.928;2023-03-19T08:08:51;6.88;;;4.63;;
28509;SDS011;15723;55.684;37.928;2023-03-19T08:11:17;7.13;;;4.90;;
28509;SDS011;15723;55.684;37.928;2023-03-19T08:13:43;4.72;;;4.25;;
28509;SDS011;15723;55.684;37.928;2023-03-19T08:16:10;5.78;;;4.53;;
28509;SDS011;15723;55.684;37.928;2023-03-19T08:18:36;5.57;;;4.70;;
28509;SDS011;15723;55.684;37.928;2023-03-19T08:21:02;4.95;;;4.30;;
28509;SDS011;15723;55.684;37.928;2023-03-19T08:23:28;5.68;;;4.97;;
28509;SDS011;15723;55.684;37.928;2023-03-19T08:25:58;6.72;;;5.28;;
28509;SDS011;15723;55.684;37.928;2023-03-19T08:28:25;6.00;;;5.40;;
28509;SDS011;15723;55.684;37.928;2023-03-19T08:30:51;6.05;;;5.55;;
28509;SDS011;15723;55.684;37.928;2023-03-19T08:33:17;11.55;;;5.88;;
28509;SDS011;15723;55.684;37.928;2023-03-19T08:35:43;6.32;;;5.70;;
28509;SDS011;15723;55.684;37.928;2023-03-19T08:38:09;5.70;;;5.20;;
28509;SDS011;15723;55.684;37.928;2023-03-19T08:40:36;7.38;;;5.43;;
28509;SDS011;15723;55.684;37.928;2023-03-19T08:43:03;6.20;;;5.60;;
28509;SDS011;15723;55.684;37.928;2023-03-19T08:45:31;7.72;;;6.10;;
28509;SDS011;15723;55.684;37.928;2023-03-19T08:47:57;9.00;;;6.18;;
28509;SDS011;15723;55.684;37.928;2023-03-19T08:50:23;7.60;;;6.00;;
28509;SDS011;15723;55.684;37.928;2023-03-19T08:52:49;7.32;;;5.85;;
28509;SDS011;15723;55.684;37.928;2023-03-19T08:55:16;7.70;;;6.32;;
28509;SDS011;15723;55.684;37.928;2023-03-19T08:57:42;7.82;;;5.88;;
28509;SDS011;15723;55.684;37.928;2023-03-19T09:00:09;8.48;;;6.75;;
28509;SDS011;15723;55.684;37.928;2023-03-19T09:02:35;9.85;;;6.97;;
28509;SDS011;15723;55.684;37.928;2023-03-19T09:05:02;15.43;;;6.50;;
28509;SDS011;15723;55.684;37.928;2023-03-19T09:07:28;8.23;;;6.50;;
28509;SDS011;15723;55.684;37.928;2023-03-19T09:09:55;7.53;;;6.38;;
28509;SDS011;15723;55.684;37.928;2023-03-19T09:12:21;10.45;;;6.80;;
28509;SDS011;15723;55.684;37.928;2023-03-19T09:14:47;9.30;;;6.85;;
28509;SDS011;15723;55.684;37.928;2023-03-19T09:17:13;9.95;;;6.97;;
28509;SDS011;15723;55.684;37.928;2023-03-19T09:19:40;9.73;;;7.20;;
28509;SDS011;15723;55.684;37.928;2023-03-19T09:22:06;9.25;;;6.63;;
28509;SDS011;15723;55.684;37.928;2023-03-19T09:24:32;7.72;;;6.78;;
28509;SDS011;15723;55.684;37.928;2023-03-19T09:26:59;10.00;;;7.05;;
28509;SDS011;15723;55.684;37.928;2023-03-19T09:31:51;8.50;;;6.10;;
28509;SDS011;15723;55.684;37.928;2023-03-19T09:52:29;9.50;;;6.20;;
